sensor_id;sensor_type;location;lat;lon;timestamp;pressure;altitude;pressure_sealevel;temperature;humidity
19797;BME280;10058;57.654;12.044;2023-04-01T00:01:00;100008.63;;;1.05;100.00
19797;BME280;10058;57.654;12.044;2023-04-01T00:03:25;100015.78;;;0.77;100.00
19797;BME280;10058;57.654;12.044;2023-04-01T00:05:54;100013.34;;;0.96;100.00
19797;BME280;10058;57.654;12.044;2023-04-01T00:08:20;100010.41;;;0.74;100.00
19797;BME280;10058;57.654;12.044;2023-04-01T00:10:45;100019.69;;;0.85;100.00
19797;BME280;10058;57.654;12.044;2023-04-01T00:13:11;100015.78;;;0.77;100.00
19797;BME280;10058;57.654;12.044;2023-04-01T00:15:36;100025.13;;;0.73;100.00
19797;BME280;10058;57.654;12.044;2023-04-01T00:18:02;100029.09;;;0.66;100.00
19797;BME280;10058;57.654;12.044;2023-04-01T00:20:27;100029.25;;;0.69;100.00
19797;BME280;10058;57.654;12.044;2023-04-01T00:22:53;100030.31;;;0.73;100.00
19797;BME280;10058;57.654;12.044;2023-04-01T00:25:18;100026.72;;;0.55;100.00
19797;BME280;10058;57.654;12.044;2023-04-01T00:27:44;100037.78;;;0.36;100.00
19797;BME280;10058;57.654;12.044;2023-04-01T00:30:09;100034.13;;;0.63;100.00
19797;BME280;10058;57.654;12.044;2023-04-01T00:32:35;100042.19;;;0.37;100.00
19797;BME280;10058;57.654;12.044;2023-04-01T00:35:01;100033.47;;;0.51;100.00
19797;BME280;10058;57.654;12.044;2023-04-01T00:37:26;100039.94;;;0.43;100.00
19797;BME280;10058;57.654;12.044;2023-04-01T00:39:52;100042.66;;;0.30;100.00
19797;BME280;10058;57.654;12.044;2023-04-01T00:42:17;100044.47;;;0.31;100.00
19797;BME280;10058;57.654;12.044;2023-04-01T00:44:45;100055.53;;;0.43;100.00
19797;BME280;10058;57.654;12.044;2023-04-01T00:47:10;100027.09;;;0.00;100.00
19797;BME280;10058;57.654;12.044;2023-04-01T00:49:37;100062.75;;;0.18;100.00
19797;BME280;10058;57.654;12.044;2023-04-01T00:52:04;100051.59;;;0.35;100.00
19797;BME280;10058;57.654;12.044;2023-04-01T00:54:30;100067.78;;;0.15;100.00
19797;BME280;10058;57.654;12.044;2023-04-01T00:57:06;100072.81;;;0.12;100.00
19797;BME280;10058;57.654;12.044;2023-04-01T00:59:35;100070.66;;;0.05;100.00
19797;BME280;10058;57.654;12.044;2023-04-01T01:02:02;100078.53;;;0.06;100.00
19797;BME280;10058;57.654;12.044;2023-04-01T01:04:29;100086.06;;;0.02;100.00
19797;BME280;10058;57.654;12.044;2023-04-01T01:07:04;100078.00;;;-0.03;100.00
19797;BME280;10058;57.654;12.044;2023-04-01T01:09:38;100084.72;;;-0.07;100.00
19797;BME280;10058;57.654;12.044;2023-04-01T01:17:31;100093.75;;;-0.15;100.00
19797;BME280;10058;57.654;12.044;2023-04-01T01:25:03;100109.88;;;-0.35;100.00
19797;BME280;10058;57.654;12.044;2023-04-01T01:27:30;100115.41;;;-0.29;100.00
19797;BME280;10058;57.654;12.044;2023-04-01T01:37:40;100130.28;;;-0.41;100.00
19797;BME280;10058;57.654;12.044;2023-04-01T01:40:07;100139.25;;;-0.36;100.00
19797;BME280;10058;57.654;12.044;2023-04-01T01:42:35;100142.63;;;-0.37;100.00
19797;BME280;10058;57.654;12.044;2023-04-01T01:45:01;100138.47;;;-0.48;100.00
19797;BME280;10058;57.654;12.044;2023-04-01T01:47:27;100135.25;;;-0.59;100.00
19797;BME280;10058;57.654;12.044;2023-04-01T01:49:53;100138.22;;;-0.53;100.00
19797;BME280;10058;57.654;12.044;2023-04-01T01:52:21;100139.16;;;-0.65;100.00
19797;BME280;10058;57.654;12.044;2023-04-01T01:54:47;100141.34;;;-0.58;100.00
19797;BME280;10058;57.654;12.044;2023-04-01T01:57:12;100141.47;;;-0.70;100.00
19797;BME280;10058;57.654;12.044;2023-04-01T01:59:39;100135.16;;;-0.60;100.00
19797;BME280;10058;57.654;12.044;2023-04-01T02:02:05;100138.59;;;-0.75;100.00
19797;BME280;10058;57.654;12.044;2023-04-01T02:04:36;100137.00;;;-0.73;100.00
19797;BME280;10058;57.654;12.044;2023-04-01T02:07:04;100145.78;;;-0.71;100.00
19797;BME280;10058;57.654;12.044;2023-04-01T02:09:32;100143.97;;;-0.72;100.00
19797;BME280;10058;57.654;12.044;2023-04-01T02:11:59;100149.53;;;-0.65;100.00
19797;BME280;10058;57.654;12.044;2023-04-01T02:17:20;100153.91;;;-0.92;100.00
19797;BME280;10058;57.654;12.044;2023-04-01T02:19:47;100157.00;;;-0.98;100.00
19797;BME280;10058;57.654;12.044;2023-04-01T02:22:14;100153.22;;;-0.90;100.00
19797;BME280;10058;57.654;12.044;2023-04-01T02:24:41;100162.09;;;-0.99;100.00
19797;BME280;10058;57.654;12.044;2023-04-01T02:27:07;100162.00;;;-1.01;100.00
19797;BME280;10058;57.654;12.044;2023-04-01T02:29:34;100169.38;;;-0.94;100.00
19797;BME280;10058;57.654;12.044;2023-04-01T02:31:59;100167.19;;;-1.01;100.00
19797;BME280;10058;57.654;12.044;2023-04-01T02:34:25;100172.59;;;-1.11;100.00
19797;BME280;10058;57.654;12.044;2023-04-01T02:36:51;100168.41;;;-1.09;100.00
19797;BME280;10058;57.654;12.044;2023-04-01T02:39:16;100171.19;;;-1.19;100.00
19797;BME280;10058;57.654;12.044;2023-04-01T02:41:43;100182.19;;;-1.23;100.00
19797;BME280;10058;57.654;12.044;2023-04-01T02:44:09;100177.78;;;-1.11;100.00
19797;BME280;10058;57.654;12.044;2023-04-01T02:46:35;100179.59;;;-1.10;100.00
19797;BME280;10058;57.654;12.044;2023-04-01T02:49:00;100185.38;;;-1.27;100.00
19797;BME280;10058;57.654;12.044;2023-04-01T02:51:25;100182.06;;;-1.12;100.00
19797;BME280;10058;57.654;12.044;2023-04-01T02:53:50;100186.16;;;-1.15;100.00
19797;BME280;10058;57.654;12.044;2023-04-01T02:56:16;100190.34;;;-1.04;100.00
19797;BME280;10058;57.654;12.044;2023-04-01T02:58:41;100187.75;;;-1.17;100.00
19797;BME280;10058;57.654;12.044;2023-04-01T03:01:06;100195.97;;;-1.24;100.00
19797;BME280;10058;57.654;12.044;2023-04-01T03:03:33;100187.06;;;-1.28;100.00
19797;BME280;10058;57.654;12.044;2023-04-01T03:05:58;100193.16;;;-1.27;100.00
19797;BME280;10058;57.654;12.044;2023-04-01T03:08:25;100191.25;;;-1.17;100.00
19797;BME280;10058;57.654;12.044;2023-04-01T03:10:50;100195.53;;;-1.17;100.00
19797;BME280;10058;57.654;12.044;2023-04-01T03:13:15;100202.53;;;-1.29;100.00
19797;BME280;10058;57.654;12.044;2023-04-01T03:15:40;100200.63;;;-1.32;100.00
19797;BME280;10058;57.654;12.044;2023-04-01T03:18:05;100211.22;;;-1.29;100.00
19797;BME280;10058;57.654;12.044;2023-04-01T03:20:31;100210.09;;;-1.32;100.00
19797;BME280;10058;57.654;12.044;2023-04-01T03:22:56;100219.19;;;-1.26;100.00
19797;BME280;10058;57.654;12.044;2023-04-01T03:25:21;100222.38;;;-1.43;100.00
19797;BME280;10058;57.654;12.044;2023-04-01T03:27:46;100224.44;;;-1.37;100.00
19797;BME280;10058;57.654;12.044;2023-04-01T03:30:11;100218.38;;;-1.38;100.00
19797;BME280;10058;57.654;12.044;2023-04-01T03:32:36;100230.94;;;-1.31;100.00
19797;BME280;10058;57.654;12.044;2023-04-01T03:35:02;100233.44;;;-1.32;100.00
19797;BME280;10058;57.654;12.044;2023-04-01T03:37:27;100232.53;;;-1.59;100.00
19797;BME280;10058;57.654;12.044;2023-04-01T03:39:52;100238.72;;;-1.57;100.00
19797;BME280;10058;57.654;12.044;2023-04-01T03:42:18;100238.72;;;-1.57;100.00
19797;BME280;10058;57.654;12.044;2023-04-01T03:44:43;100244.81;;;-1.44;100.00
19797;BME280;10058;57.654;12.044;2023-04-01T03:47:08;100249.91;;;-1.70;100.00
19797;BME280;10058;57.654;12.044;2023-04-01T03:49:34;100240.63;;;-1.42;100.00
19797;BME280;10058;57.654;12.044;2023-04-01T03:52:00;100249.97;;;-1.57;100.00
19797;BME280;10058;57.654;12.044;2023-04-01T03:54:25;100253.47;;;-1.56;100.00
19797;BME280;10058;57.654;12.044;2023-04-01T03:56:50;100261.41;;;-1.53;100.00
19797;BME280;10058;57.654;12.044;2023-04-01T03:59:16;100257.22;;;-1.64;100.00
19797;BME280;10058;57.654;12.044;2023-04-01T04:01:41;100254.31;;;-1.56;100.00
19797;BME280;10058;57.654;12.044;2023-04-01T04:04:06;100252.28;;;-1.73;100.00
19797;BME280;10058;57.654;12.044;2023-04-01T04:06:32;100221.97;;;-1.87;100.00
19797;BME280;10058;57.654;12.044;2023-04-01T04:08:57;100257.53;;;-1.60;100.00
19797;BME280;10058;57.654;12.044;2023-04-01T04:11:22;100265.88;;;-1.64;100.00
19797;BME280;10058;57.654;12.044;2023-04-01T04:13:48;100262.09;;;-1.69;100.00
19797;BME280;10058;57.654;12.044;2023-04-01T04:16:13;100261.16;;;-2.07;100.00
19797;BME280;10058;57.654;12.044;2023-04-01T04:18:39;100269.59;;;-1.85;100.00
19797;BME280;10058;57.654;12.044;2023-04-01T04:21:04;100264.03;;;-1.91;100.00
19797;BME280;10058;57.654;12.044;2023-04-01T04:23:30;100271.69;;;-1.93;100.00
19797;BME280;10058;57.654;12.044;2023-04-01T04:26:00;100278.75;;;-1.90;100.00
19797;BME280;10058;57.654;12.044;2023-04-01T04:28:26;100281.56;;;-1.87;100.00
19797;BME280;10058;57.654;12.044;2023-04-01T04:30:52;100293.63;;;-2.13;100.00
19797;BME280;10058;57.654;12.044;2023-04-01T04:33:17;100289.50;;;-1.97;100.00
19797;BME280;10058;57.654;12.044;2023-04-01T04:35:43;100298.69;;;-1.89;100.00
19797;BME280;10058;57.654;12.044;2023-04-01T04:38:08;100299.19;;;-2.06;100.00
19797;BME280;10058;57.654;12.044;2023-04-01T04:40:35;100311.84;;;-2.11;100.00
19797;BME280;10058;57.654;12.044;2023-04-01T04:43:00;100299.41;;;-2.03;100.00
19797;BME280;10058;57.654;12.044;2023-04-01T04:45:25;100308.25;;;-2.13;100.00
19797;BME280;10058;57.654;12.044;2023-04-01T04:47:51;100317.03;;;-2.11;100.00
19797;BME280;10058;57.654;12.044;2023-04-01T04:50:16;100313.38;;;-2.01;100.00
19797;BME280;10058;57.654;12.044;2023-04-01T04:52:41;100323.22;;;-2.21;100.00
19797;BME280;10058;57.654;12.044;2023-04-01T04:55:07;100324.03;;;-2.22;100.00
19797;BME280;10058;57.654;12.044;2023-04-01T04:57:32;100324.47;;;-2.16;100.00
19797;BME280;10058;57.654;12.044;2023-04-01T04:59:57;100326.25;;;-2.15;100.00
19797;BME280;10058;57.654;12.044;2023-04-01T05:02:22;100326.25;;;-2.15;100.00
19797;BME280;10058;57.654;12.044;2023-04-01T05:04:47;100332.06;;;-2.05;100.00
19797;BME280;10058;57.654;12.044;2023-04-01T05:07:13;100337.63;;;-2.13;100.00
19797;BME280;10058;57.654;12.044;2023-04-01T05:09:38;100344.44;;;-2.01;100.00
19797;BME280;10058;57.654;12.044;2023-04-01T05:12:03;100342.75;;;-2.26;100.00
19797;BME280;10058;57.654;12.044;2023-04-01T05:14:28;100334.81;;;-2.16;100.00
19797;BME280;10058;57.654;12.044;2023-04-01T05:16:53;100339.94;;;-1.92;100.00
19797;BME280;10058;57.654;12.044;2023-04-01T05:19:19;100351.19;;;-1.92;100.00
19797;BME280;10058;57.654;12.044;2023-04-01T05:21:44;100350.28;;;-1.92;100.00
19797;BME280;10058;57.654;12.044;2023-04-01T05:24:09;100352.34;;;-1.75;100.00
19797;BME280;10058;57.654;12.044;2023-04-01T05:26:35;100368.25;;;-1.82;100.00
19797;BME280;10058;57.654;12.044;2023-04-01T05:29:01;100365.44;;;-1.85;100.00
19797;BME280;10058;57.654;12.044;2023-04-01T05:31:26;100366.66;;;-1.80;100.00
19797;BME280;10058;57.654;12.044;2023-04-01T05:33:52;100361.22;;;-1.71;100.00
19797;BME280;10058;57.654;12.044;2023-04-01T05:36:18;100361.47;;;-1.30;100.00
19797;BME280;10058;57.654;12.044;2023-04-01T05:38:43;100370.34;;;-1.52;100.00
19797;BME280;10058;57.654;12.044;2023-04-01T05:41:10;100367.41;;;-1.45;100.00
19797;BME280;10058;57.654;12.044;2023-04-01T05:43:36;100369.41;;;-1.41;100.00
19797;BME280;10058;57.654;12.044;2023-04-01T05:46:01;100376.44;;;-1.13;100.00
19797;BME280;10058;57.654;12.044;2023-04-01T05:48:27;100368.34;;;-0.53;100.00
19797;BME280;10058;57.654;12.044;2023-04-01T05:50:52;100364.94;;;0.30;100.00
19797;BME280;10058;57.654;12.044;2023-04-01T05:53:17;100370.94;;;0.29;100.00
19797;BME280;10058;57.654;12.044;2023-04-01T05:55:42;100355.63;;;2.96;100.00
19797;BME280;10058;57.654;12.044;2023-04-01T05:58:07;100361.78;;;3.14;100.00
19797;BME280;10058;57.654;12.044;2023-04-01T06:00:33;100358.13;;;3.44;100.00
19797;BME280;10058;57.654;12.044;2023-04-01T06:02:58;100368.91;;;3.70;100.00
19797;BME280;10058;57.654;12.044;2023-04-01T06:05:26;100351.28;;;4.20;100.00
19797;BME280;10058;57.654;12.044;2023-04-01T06:07:54;100368.50;;;2.26;100.00
19797;BME280;10058;57.654;12.044;2023-04-01T06:10:21;100399.72;;;0.32;100.00
19797;BME280;10058;57.654;12.044;2023-04-01T06:12:57;100406.44;;;-0.26;100.00
19797;BME280;10058;57.654;12.044;2023-04-01T06:20:29;100413.22;;;-0.28;100.00
19797;BME280;10058;57.654;12.044;2023-04-01T06:25:34;100402.47;;;0.07;100.00
19797;BME280;10058;57.654;12.044;2023-04-01T06:35:50;100424.03;;;-0.22;100.00
19797;BME280;10058;57.654;12.044;2023-04-01T06:38:25;100426.38;;;0.02;100.00
19797;BME280;10058;57.654;12.044;2023-04-01T06:51:20;100425.97;;;0.09;100.00
19797;BME280;10058;57.654;12.044;2023-04-01T06:54:03;100443.28;;;0.36;100.00
19797;BME280;10058;57.654;12.044;2023-04-01T06:56:29;100443.34;;;0.79;100.00
19797;BME280;10058;57.654;12.044;2023-04-01T07:01:31;100446.09;;;0.67;100.00
19797;BME280;10058;57.654;12.044;2023-04-01T07:06:28;100449.97;;;0.88;100.00
19797;BME280;10058;57.654;12.044;2023-04-01T07:08:55;100453.31;;;0.86;100.00
19797;BME280;10058;57.654;12.044;2023-04-01T07:11:27;100448.34;;;1.18;100.00
19797;BME280;10058;57.654;12.044;2023-04-01T07:13:59;100459.44;;;1.01;100.00
19797;BME280;10058;57.654;12.044;2023-04-01T07:23:49;100459.28;;;1.42;100.00
19797;BME280;10058;57.654;12.044;2023-04-01T07:26:17;100461.25;;;1.61;100.00
19797;BME280;10058;57.654;12.044;2023-04-01T07:28:43;100458.03;;;1.35;100.00
19797;BME280;10058;57.654;12.044;2023-04-01T07:36:42;100461.91;;;2.02;100.00
19797;BME280;10058;57.654;12.044;2023-04-01T07:45:03;100474.69;;;2.29;100.00
19797;BME280;10058;57.654;12.044;2023-04-01T07:49:50;100480.22;;;2.19;100.00
19797;BME280;10058;57.654;12.044;2023-04-01T07:52:30;100490.59;;;2.33;100.00
19797;BME280;10058;57.654;12.044;2023-04-01T08:05:04;100486.41;;;2.84;100.00
19797;BME280;10058;57.654;12.044;2023-04-01T08:07:54;100481.75;;;2.78;100.00
19797;BME280;10058;57.654;12.044;2023-04-01T08:15:32;100498.56;;;2.67;100.00
19797;BME280;10058;57.654;12.044;2023-04-01T08:18:08;100494.66;;;2.92;100.00
19797;BME280;10058;57.654;12.044;2023-04-01T08:23:40;100498.16;;;3.08;100.00
19797;BME280;10058;57.654;12.044;2023-04-01T08:26:16;100495.41;;;3.56;100.00
19797;BME280;10058;57.654;12.044;2023-04-01T08:28:46;100505.56;;;3.17;100.00
19797;BME280;10058;57.654;12.044;2023-04-01T08:31:29;100505.59;;;3.01;100.00
19797;BME280;10058;57.654;12.044;2023-04-01T08:33:57;100504.38;;;2.94;100.00
19797;BME280;10058;57.654;12.044;2023-04-01T08:36:29;100508.44;;;3.05;100.00
19797;BME280;10058;57.654;12.044;2023-04-01T08:39:02;100521.22;;;3.33;100.00
19797;BME280;10058;57.654;12.044;2023-04-01T08:41:33;100504.09;;;3.38;100.00
19797;BME280;10058;57.654;12.044;2023-04-01T08:59:58;100478.94;;;3.40;100.00
19797;BME280;10058;57.654;12.044;2023-04-01T09:04:59;100514.53;;;3.38;100.00
19797;BME280;10058;57.654;12.044;2023-04-01T09:10:11;100518.25;;;3.60;100.00
19797;BME280;10058;57.654;12.044;2023-04-01T09:12:50;100518.22;;;3.76;100.00
19797;BME280;10058;57.654;12.044;2023-04-01T09:18:20;100520.50;;;3.70;100.00
19797;BME280;10058;57.654;12.044;2023-04-01T09:29:09;100510.88;;;3.69;100.00
19797;BME280;10058;57.654;12.044;2023-04-01T09:31:40;100509.19;;;4.23;100.00
19797;BME280;10058;57.654;12.044;2023-04-01T09:36:50;100512.13;;;4.11;100.00
19797;BME280;10058;57.654;12.044;2023-04-01T09:44:38;100513.19;;;4.14;100.00
19797;BME280;10058;57.654;12.044;2023-04-01T09:52:24;100510.47;;;4.31;100.00
19797;BME280;10058;57.654;12.044;2023-04-01T10:16:03;100535.28;;;5.13;100.00
19797;BME280;10058;57.654;12.044;2023-04-01T10:18:45;100533.94;;;5.03;100.00
19797;BME280;10058;57.654;12.044;2023-04-01T10:24:03;100537.22;;;5.17;100.00
19797;BME280;10058;57.654;12.044;2023-04-01T10:34:25;100526.19;;;5.64;100.00
19797;BME280;10058;57.654;12.044;2023-04-01T10:42:45;100531.06;;;5.76;100.00
19797;BME280;10058;57.654;12.044;2023-04-01T10:45:36;100536.53;;;5.61;100.00
19797;BME280;10058;57.654;12.044;2023-04-01T10:48:12;100549.91;;;6.07;100.00
19797;BME280;10058;57.654;12.044;2023-04-01T10:56:11;100485.50;;;5.74;100.00
19797;BME280;10058;57.654;12.044;2023-04-01T10:59:02;100535.06;;;6.28;100.00
19797;BME280;10058;57.654;12.044;2023-04-01T11:07:11;100548.03;;;5.84;97.61
19797;BME280;10058;57.654;12.044;2023-04-01T11:09:34;100553.97;;;5.99;100.00
19797;BME280;10058;57.654;12.044;2023-04-01T11:17:52;100550.31;;;6.37;98.26
19797;BME280;10058;57.654;12.044;2023-04-01T11:28:09;100554.53;;;6.34;90.84
19797;BME280;10058;57.654;12.044;2023-04-01T11:31:01;100555.69;;;6.85;92.89
19797;BME280;10058;57.654;12.044;2023-04-01T11:36:19;100558.00;;;6.77;90.96
19797;BME280;10058;57.654;12.044;2023-04-01T11:38:52;100563.59;;;6.42;87.97
19797;BME280;10058;57.654;12.044;2023-04-01T11:41:40;100566.41;;;6.25;86.76
19797;BME280;10058;57.654;12.044;2023-04-01T11:44:16;100570.28;;;6.34;91.69
19797;BME280;10058;57.654;12.044;2023-04-01T11:46:56;100566.50;;;6.70;90.35
19797;BME280;10058;57.654;12.044;2023-04-01T11:49:33;100568.53;;;6.77;88.03
19797;BME280;10058;57.654;12.044;2023-04-01T12:08:15;100573.69;;;6.74;86.65
19797;BME280;10058;57.654;12.044;2023-04-01T12:13:35;100576.66;;;6.83;87.40
19797;BME280;10058;57.654;12.044;2023-04-01T12:16:11;100584.41;;;6.80;87.93
19797;BME280;10058;57.654;12.044;2023-04-01T12:18:40;100589.06;;;6.44;86.14
19797;BME280;10058;57.654;12.044;2023-04-01T12:36:18;100597.88;;;7.34;85.07
19797;BME280;10058;57.654;12.044;2023-04-01T12:38:51;100603.78;;;7.27;84.18
19797;BME280;10058;57.654;12.044;2023-04-01T12:41:40;100616.44;;;6.92;80.88
19797;BME280;10058;57.654;12.044;2023-04-01T12:44:16;100615.69;;;7.41;83.24
19797;BME280;10058;57.654;12.044;2023-04-01T12:49:32;100639.69;;;7.28;79.24
19797;BME280;10058;57.654;12.044;2023-04-01T13:04:44;100658.09;;;7.28;80.42
19797;BME280;10058;57.654;12.044;2023-04-01T13:12:26;100652.25;;;7.13;83.45
19797;BME280;10058;57.654;12.044;2023-04-01T13:25:06;100674.56;;;7.22;87.14
19797;BME280;10058;57.654;12.044;2023-04-01T13:27:40;100670.75;;;6.93;83.43
19797;BME280;10058;57.654;12.044;2023-04-01T13:35:18;100679.88;;;6.81;85.67
19797;BME280;10058;57.654;12.044;2023-04-01T13:40:23;100684.91;;;6.97;87.69
19797;BME280;10058;57.654;12.044;2023-04-01T13:45:23;100686.16;;;6.84;88.61
19797;BME280;10058;57.654;12.044;2023-04-01T13:48:07;100684.63;;;6.89;89.09
19797;BME280;10058;57.654;12.044;2023-04-01T13:53:16;100689.53;;;7.03;90.45
19797;BME280;10058;57.654;12.044;2023-04-01T13:56:02;100687.81;;;6.82;88.59
19797;BME280;10058;57.654;12.044;2023-04-01T13:59:19;100696.69;;;7.29;90.98
19797;BME280;10058;57.654;12.044;2023-04-01T14:02:03;100691.56;;;7.32;89.88
19797;BME280;10058;57.654;12.044;2023-04-01T14:11:56;100704.25;;;7.42;89.02
19797;BME280;10058;57.654;12.044;2023-04-01T14:14:35;100716.06;;;7.31;87.42
19797;BME280;10058;57.654;12.044;2023-04-01T14:19:50;100727.41;;;6.66;88.24
19797;BME280;10058;57.654;12.044;2023-04-01T14:24:52;100713.44;;;7.09;88.66
19797;BME280;10058;57.654;12.044;2023-04-01T14:29:56;100710.50;;;6.80;86.24
19797;BME280;10058;57.654;12.044;2023-04-01T14:35:11;100727.06;;;7.21;91.51
19797;BME280;10058;57.654;12.044;2023-04-01T14:37:55;100732.91;;;7.14;88.43
19797;BME280;10058;57.654;12.044;2023-04-01T14:43:14;100737.41;;;6.95;85.94
19797;BME280;10058;57.654;12.044;2023-04-01T14:45:45;100743.94;;;7.26;86.93
19797;BME280;10058;57.654;12.044;2023-04-01T14:48:17;100753.78;;;7.11;85.00
19797;BME280;10058;57.654;12.044;2023-04-01T14:50:46;100748.22;;;7.24;86.73
19797;BME280;10058;57.654;12.044;2023-04-01T14:55:50;100762.78;;;6.95;83.96
19797;BME280;10058;57.654;12.044;2023-04-01T14:58:17;100767.91;;;7.13;85.29
19797;BME280;10058;57.654;12.044;2023-04-01T15:03:22;100771.13;;;7.06;83.83
19797;BME280;10058;57.654;12.044;2023-04-01T15:08:36;100774.81;;;7.11;87.20
19797;BME280;10058;57.654;12.044;2023-04-01T15:21:16;100795.09;;;6.92;86.58
19797;BME280;10058;57.654;12.044;2023-04-01T15:23:49;100792.00;;;6.82;87.61
19797;BME280;10058;57.654;12.044;2023-04-01T15:28:49;100800.16;;;6.88;88.59
19797;BME280;10058;57.654;12.044;2023-04-01T15:31:39;100805.06;;;6.80;88.28
19797;BME280;10058;57.654;12.044;2023-04-01T15:34:23;100814.78;;;6.62;88.45
19797;BME280;10058;57.654;12.044;2023-04-01T15:36:53;100817.47;;;6.63;89.66
19797;BME280;10058;57.654;12.044;2023-04-01T15:39:27;100813.25;;;6.67;90.34
19797;BME280;10058;57.654;12.044;2023-04-01T15:47:23;100827.44;;;6.32;91.90
19797;BME280;10058;57.654;12.044;2023-04-01T15:50:28;100837.03;;;6.51;93.26
19797;BME280;10058;57.654;12.044;2023-04-01T15:52:48;100836.16;;;6.50;95.36
19797;BME280;10058;57.654;12.044;2023-04-01T15:55:26;100834.13;;;6.45;96.22
19797;BME280;10058;57.654;12.044;2023-04-01T16:00:30;100845.06;;;6.35;96.19
19797;BME280;10058;57.654;12.044;2023-04-01T16:03:09;100850.03;;;6.48;97.44
19797;BME280;10058;57.654;12.044;2023-04-01T16:10:49;100860.66;;;6.32;97.66
19797;BME280;10058;57.654;12.044;2023-04-01T16:21:00;100881.75;;;5.96;100.00
19797;BME280;10058;57.654;12.044;2023-04-01T16:25:57;100885.19;;;5.95;100.00
19797;BME280;10058;57.654;12.044;2023-04-01T16:28:34;100892.22;;;5.96;100.00
19797;BME280;10058;57.654;12.044;2023-04-01T16:33:51;100898.75;;;5.69;100.00
19797;BME280;10058;57.654;12.044;2023-04-01T16:36:30;100908.25;;;5.84;100.00
19797;BME280;10058;57.654;12.044;2023-04-01T16:39:11;100911.97;;;5.72;100.00
19797;BME280;10058;57.654;12.044;2023-04-01T16:44:21;100915.75;;;5.77;100.00
19797;BME280;10058;57.654;12.044;2023-04-01T16:54:35;100932.97;;;5.36;100.00
19797;BME280;10058;57.654;12.044;2023-04-01T16:59:29;100946.34;;;5.42;100.00
19797;BME280;10058;57.654;12.044;2023-04-01T17:07:01;100970.97;;;5.28;100.00
19797;BME280;10058;57.654;12.044;2023-04-01T17:22:04;101001.78;;;5.16;100.00
19797;BME280;10058;57.654;12.044;2023-04-01T17:40:34;101040.53;;;4.74;100.00
19797;BME280;10058;57.654;12.044;2023-04-01T17:45:32;101046.91;;;4.63;100.00
19797;BME280;10058;57.654;12.044;2023-04-01T17:58:20;101069.00;;;4.37;100.00
19797;BME280;10058;57.654;12.044;2023-04-01T18:00:51;101070.94;;;4.56;100.00
19797;BME280;10058;57.654;12.044;2023-04-01T18:03:36;101086.91;;;4.30;100.00
19797;BME280;10058;57.654;12.044;2023-04-01T18:06:09;101089.28;;;4.41;100.00
19797;BME280;10058;57.654;12.044;2023-04-01T18:08:49;101086.31;;;4.35;100.00
19797;BME280;10058;57.654;12.044;2023-04-01T18:11:34;101101.06;;;4.18;100.00
19797;BME280;10058;57.654;12.044;2023-04-01T18:19:23;101104.75;;;4.07;100.00
19797;BME280;10058;57.654;12.044;2023-04-01T18:22:15;101111.91;;;3.95;100.00
19797;BME280;10058;57.654;12.044;2023-04-01T18:24:54;101122.88;;;3.90;100.00
19797;BME280;10058;57.654;12.044;2023-04-01T18:27:22;101132.25;;;4.01;100.00
19797;BME280;10058;57.654;12.044;2023-04-01T18:29:53;101139.56;;;3.92;100.00
19797;BME280;10058;57.654;12.044;2023-04-01T18:37:24;101149.34;;;3.66;100.00
19797;BME280;10058;57.654;12.044;2023-04-01T18:39:52;101149.34;;;3.66;100.00
19797;BME280;10058;57.654;12.044;2023-04-01T18:44:56;101164.19;;;3.53;100.00
19797;BME280;10058;57.654;12.044;2023-04-01T18:55:18;101184.38;;;3.27;100.00
19797;BME280;10058;57.654;12.044;2023-04-01T18:57:49;101180.38;;;3.19;100.00
19797;BME280;10058;57.654;12.044;2023-04-01T19:00:25;101193.66;;;3.09;100.00
19797;BME280;10058;57.654;12.044;2023-04-01T19:03:02;101194.94;;;3.15;100.00
19797;BME280;10058;57.654;12.044;2023-04-01T19:05:42;101200.06;;;3.14;100.00
19797;BME280;10058;57.654;12.044;2023-04-01T19:08:28;101204.13;;;3.09;100.00
19797;BME280;10058;57.654;12.044;2023-04-01T19:14:00;101213.56;;;2.80;100.00
19797;BME280;10058;57.654;12.044;2023-04-01T19:16:38;101208.94;;;2.63;100.00
19797;BME280;10058;57.654;12.044;2023-04-01T19:19:19;101213.94;;;2.47;100.00
19797;BME280;10058;57.654;12.044;2023-04-01T19:29:25;101231.06;;;2.30;100.00
19797;BME280;10058;57.654;12.044;2023-04-01T19:31:54;101239.81;;;2.31;100.00
19797;BME280;10058;57.654;12.044;2023-04-01T19:34:46;101247.53;;;2.29;100.00
19797;BME280;10058;57.654;12.044;2023-04-01T19:37:21;101242.03;;;2.25;100.00
19797;BME280;10058;57.654;12.044;2023-04-01T19:42:24;101268.69;;;1.96;100.00
19797;BME280;10058;57.654;12.044;2023-04-01T19:44:59;101270.44;;;2.08;100.00
19797;BME280;10058;57.654;12.044;2023-04-01T19:47:37;101268.31;;;2.03;100.00
19797;BME280;10058;57.654;12.044;2023-04-01T19:52:48;101279.59;;;1.90;100.00
19797;BME280;10058;57.654;12.044;2023-04-01T20:00:50;101297.53;;;1.74;100.00
19797;BME280;10058;57.654;12.044;2023-04-01T20:03:25;101301.22;;;1.64;100.00
19797;BME280;10058;57.654;12.044;2023-04-01T20:06:01;101311.28;;;1.60;100.00
19797;BME280;10058;57.654;12.044;2023-04-01T20:08:44;101309.19;;;1.54;100.00
19797;BME280;10058;57.654;12.044;2023-04-01T20:11:26;101272.56;;;1.16;100.00
19797;BME280;10058;57.654;12.044;2023-04-01T20:13:59;101318.94;;;1.33;100.00
19797;BME280;10058;57.654;12.044;2023-04-01T20:16:39;101321.47;;;1.20;100.00
19797;BME280;10058;57.654;12.044;2023-04-01T20:19:06;101329.16;;;1.19;100.00
19797;BME280;10058;57.654;12.044;2023-04-01T20:24:02;101330.25;;;1.22;100.00